createdAt,value
2018-02-04T00:02:03.448Z,7.97
2018-02-04T00:04:30.995Z,8.48
2018-02-04T00:06:58.552Z,8.27
2018-02-04T00:09:26.104Z,9.02
2018-02-04T00:11:53.673Z,9.48
2018-02-04T00:14:21.228Z,9.48
2018-02-04T00:16:48.753Z,9.30
2018-02-04T00:19:16.311Z,8.45
2018-02-04T00:21:44.645Z,9.20
2018-02-04T00:24:12.203Z,9.25
2018-02-04T00:26:39.743Z,8.25
2018-02-04T00:29:07.318Z,9.00
2018-02-04T00:31:34.883Z,8.48
2018-02-04T00:34:02.434Z,9.80
2018-02-04T00:36:29.949Z,7.60
2018-02-04T00:38:58.278Z,8.82
2018-02-04T00:41:25.795Z,8.68
2018-02-04T00:43:53.336Z,9.30
2018-02-04T00:46:20.856Z,7.72
2018-02-04T00:48:48.411Z,8.27
2018-02-04T00:51:15.935Z,8.25
2018-02-04T00:53:44.263Z,7.80
2018-02-04T00:56:11.792Z,8.10
2018-02-04T00:58:39.329Z,8.50
2018-02-04T01:01:07.648Z,9.10
2018-02-04T01:03:35.191Z,8.77
2018-02-04T01:06:02.732Z,8.13
2018-02-04T01:08:31.011Z,7.97
2018-02-04T01:10:58.567Z,8.80
2018-02-04T01:13:26.878Z,8.80
2018-02-04T01:15:54.442Z,7.85
2018-02-04T01:18:21.959Z,8.70
2018-02-04T01:20:50.269Z,7.65
2018-02-04T01:23:17.822Z,8.75
2018-02-04T01:25:45.379Z,8.57
2018-02-04T01:28:12.902Z,7.70
2018-02-04T01:30:40.462Z,7.78
2018-02-04T01:33:07.980Z,7.43
2018-02-04T01:35:35.529Z,7.72
2018-02-04T01:38:03.065Z,8.75
2018-02-04T01:40:31.387Z,8.13
2018-02-04T01:42:58.909Z,7.90
2018-02-04T01:45:27.200Z,7.70
2018-02-04T01:48:06.627Z,8.43
2018-02-04T01:50:34.916Z,9.32
2018-02-04T01:53:02.469Z,8.18
2018-02-04T01:55:30.005Z,8.48
2018-02-04T01:57:58.320Z,8.55
2018-02-04T02:00:25.864Z,7.82
2018-02-04T02:02:53.407Z,9.18
2018-02-04T02:05:20.952Z,9.40
2018-02-04T02:07:48.501Z,9.05
2018-02-04T02:10:16.026Z,9.77
2018-02-04T02:12:43.567Z,9.27
2018-02-04T02:15:11.103Z,9.55
2018-02-04T02:17:38.662Z,10.02
2018-02-04T02:20:06.239Z,9.75
2018-02-04T02:22:34.562Z,8.85
2018-02-04T02:25:02.090Z,9.25
2018-02-04T02:27:29.635Z,9.80
2018-02-04T02:29:57.947Z,9.20
2018-02-04T02:32:25.471Z,9.38
2018-02-04T02:34:53.783Z,9.60
2018-02-04T02:37:21.296Z,9.65
2018-02-04T02:39:48.832Z,9.30
2018-02-04T02:42:16.355Z,8.50
2018-02-04T02:44:43.915Z,8.73
2018-02-04T02:47:11.443Z,8.35
2018-02-04T02:49:39.013Z,8.80
2018-02-04T02:52:07.309Z,8.90
2018-02-04T02:54:34.851Z,8.48
2018-02-04T02:57:03.149Z,8.20
2018-02-04T02:59:30.700Z,9.50
2018-02-04T03:01:58.999Z,9.15
2018-02-04T03:04:26.556Z,9.02
2018-02-04T03:06:54.091Z,9.00
2018-02-04T03:09:22.411Z,8.85
2018-02-04T03:11:49.946Z,9.00
2018-02-04T03:14:17.513Z,8.85
2018-02-04T03:16:45.056Z,8.55
2018-02-04T03:19:13.369Z,9.13
2018-02-04T03:21:40.930Z,8.82
2018-02-04T03:24:08.461Z,8.40
2018-02-04T03:26:36.764Z,8.40
2018-02-04T03:29:04.287Z,9.02
2018-02-04T03:31:32.596Z,8.80
2018-02-04T03:34:00.107Z,9.07
2018-02-04T03:36:27.668Z,8.27
2018-02-04T03:38:55.189Z,8.90
2018-02-04T03:41:22.731Z,8.90
2018-02-04T03:43:50.331Z,10.02
2018-02-04T03:46:17.881Z,9.52
2018-02-04T03:48:45.409Z,9.32
2018-02-04T03:51:12.955Z,9.13
2018-02-04T03:53:41.243Z,9.02
2018-02-04T03:56:08.810Z,9.23
2018-02-04T03:58:36.338Z,9.27
2018-02-04T04:01:04.652Z,8.70
2018-02-04T04:03:35.667Z,9.35
2018-02-04T04:06:03.975Z,10.65
2018-02-04T04:08:31.549Z,10.27
2018-02-04T04:10:59.075Z,8.80
2018-02-04T04:13:27.403Z,10.85
2018-02-04T04:15:54.940Z,9.43
2018-02-04T04:18:23.244Z,10.65
2018-02-04T04:20:50.784Z,8.82
2018-02-04T04:23:18.355Z,10.43
2018-02-04T04:25:45.889Z,9.05
2018-02-04T04:28:13.421Z,9.63
2018-02-04T04:30:41.724Z,9.90
2018-02-04T04:33:09.279Z,8.80
2018-02-04T04:35:36.811Z,9.85
2018-02-04T04:38:04.352Z,8.73
2018-02-04T04:40:31.886Z,10.02
2018-02-04T04:42:59.435Z,9.60
2018-02-04T04:45:26.951Z,8.82
2018-02-04T04:47:54.482Z,9.73
2018-02-04T04:50:22.019Z,9.65
2018-02-04T04:52:49.543Z,9.05
2018-02-04T04:55:17.851Z,9.45
2018-02-04T04:57:45.391Z,10.40
2018-02-04T05:00:13.708Z,9.57
2018-02-04T05:02:41.247Z,10.32
2018-02-04T05:05:08.787Z,9.93
2018-02-04T05:07:37.096Z,10.85
2018-02-04T05:10:04.647Z,10.35
2018-02-04T05:12:32.171Z,11.45
2018-02-04T05:14:59.724Z,11.27
2018-02-04T05:17:27.252Z,11.80
2018-02-04T05:19:54.800Z,12.90
2018-02-04T05:22:22.316Z,11.45
2018-02-04T05:24:50.625Z,10.90
2018-02-04T05:27:18.159Z,11.32
2018-02-04T05:29:46.480Z,11.98
2018-02-04T05:32:14.078Z,12.20
2018-02-04T05:34:41.595Z,13.55
2018-02-04T05:37:09.206Z,12.70
2018-02-04T05:39:36.733Z,12.93
2018-02-04T05:42:04.299Z,14.10
2018-02-04T05:44:31.843Z,14.00
2018-02-04T05:46:59.395Z,13.77
2018-02-04T05:49:26.928Z,14.43
2018-02-04T05:51:55.249Z,12.55
2018-02-04T05:54:22.792Z,13.95
2018-02-04T05:56:50.328Z,12.85
2018-02-04T05:59:18.626Z,12.85
2018-02-04T06:01:46.224Z,11.38
2018-02-04T06:04:13.757Z,11.85
2018-02-04T06:06:41.319Z,12.80
2018-02-04T06:09:08.856Z,11.10
2018-02-04T06:11:37.163Z,10.35
2018-02-04T06:14:04.699Z,9.70
2018-02-04T06:16:33.015Z,9.48
2018-02-04T06:19:00.540Z,9.43
2018-02-04T06:21:28.082Z,9.77
2018-02-04T06:23:56.367Z,9.77
2018-02-04T06:26:24.684Z,10.07
2018-02-04T06:28:52.981Z,8.75
2018-02-04T06:31:20.518Z,10.20
2018-02-04T06:33:48.087Z,9.50
2018-02-04T06:36:15.603Z,9.75
2018-02-04T06:38:43.931Z,10.05
2018-02-04T06:41:11.460Z,7.78
2018-02-04T06:43:39.044Z,8.82
2018-02-04T06:46:06.563Z,10.25
2018-02-04T06:48:34.877Z,10.57
2018-02-04T06:51:02.432Z,9.98
2018-02-04T06:53:29.989Z,10.55
2018-02-04T06:55:57.538Z,11.45
2018-02-04T06:58:25.095Z,11.60
2018-02-04T07:00:52.631Z,11.15
2018-02-04T07:03:20.985Z,11.12
2018-02-04T07:05:48.517Z,11.98
2018-02-04T07:08:16.084Z,14.70
2018-02-04T07:10:43.640Z,13.52
2018-02-04T07:13:11.164Z,14.45
2018-02-04T07:15:39.479Z,14.50
2018-02-04T07:18:07.028Z,15.07
2018-02-04T07:20:34.620Z,16.02
2018-02-04T07:23:02.178Z,15.38
2018-02-04T07:25:29.755Z,15.50
2018-02-04T07:27:57.287Z,16.73
2018-02-04T07:30:24.863Z,15.23
2018-02-04T07:32:52.391Z,15.20
2018-02-04T07:35:19.943Z,17.75
2018-02-04T07:37:47.504Z,17.02
2018-02-04T07:40:15.041Z,17.30
2018-02-04T07:42:43.343Z,16.30
2018-02-04T07:45:10.880Z,16.95
2018-02-04T07:47:39.181Z,16.00
2018-02-04T07:50:06.753Z,15.85
2018-02-04T07:52:34.275Z,16.90
2018-02-04T07:55:01.794Z,16.85
2018-02-04T07:57:29.355Z,17.20
2018-02-04T07:59:56.884Z,16.90
2018-02-04T08:02:24.439Z,16.23
2018-02-04T08:04:51.981Z,17.48
2018-02-04T08:07:20.311Z,17.83
2018-02-04T08:09:47.833Z,17.37
2018-02-04T08:12:16.154Z,17.35
2018-02-04T08:14:43.695Z,17.10
2018-02-04T08:17:11.239Z,16.33
2018-02-04T08:19:38.776Z,16.25
2018-02-04T08:22:06.326Z,15.98
2018-02-04T08:24:33.874Z,17.15
2018-02-04T08:27:01.454Z,16.10
2018-02-04T08:29:28.996Z,18.02
2018-02-04T08:31:56.553Z,17.35
2018-02-04T08:34:24.071Z,17.83
2018-02-04T08:36:51.596Z,17.52
2018-02-04T08:39:19.128Z,16.62
2018-02-04T08:41:46.671Z,17.80
2018-02-04T08:44:14.239Z,17.33
2018-02-04T08:46:41.774Z,18.25
2018-02-04T08:49:09.332Z,16.65
2018-02-04T08:51:36.863Z,18.05
2018-02-04T08:54:04.425Z,17.40
2018-02-04T08:56:33.949Z,15.40
2018-02-04T08:59:02.312Z,16.70
2018-02-04T09:01:29.936Z,17.33
2018-02-04T09:03:57.496Z,18.37
2018-02-04T09:06:25.019Z,18.33
2018-02-04T09:08:52.579Z,17.40
2018-02-04T09:11:20.128Z,17.08
2018-02-04T09:13:48.512Z,16.90
2018-02-04T09:16:16.002Z,15.85
2018-02-04T09:18:43.539Z,16.45
2018-02-04T09:21:11.076Z,16.00
2018-02-04T09:23:39.383Z,15.38
2018-02-04T09:26:07.007Z,16.45
2018-02-04T09:28:34.527Z,16.92
2018-02-04T09:31:02.072Z,16.65
2018-02-04T09:33:29.699Z,13.98
2018-02-04T09:35:57.281Z,15.45
2018-02-04T09:38:24.810Z,16.17
2018-02-04T09:40:52.364Z,16.02
2018-02-04T09:43:19.913Z,14.73
2018-02-04T09:45:47.564Z,13.65
2018-02-04T09:48:15.109Z,13.18
2018-02-04T09:50:43.805Z,14.40
2018-02-04T09:53:11.344Z,13.52
2018-02-04T09:55:39.066Z,14.25
2018-02-04T09:58:07.691Z,14.15
2018-02-04T10:00:35.267Z,12.70
2018-02-04T10:03:02.812Z,13.20
2018-02-04T10:05:31.611Z,13.15
2018-02-04T10:07:59.194Z,13.62
2018-02-04T10:10:26.756Z,12.37
2018-02-04T10:12:54.318Z,11.65
2018-02-04T10:15:21.847Z,11.00
2018-02-04T10:17:49.411Z,10.27
2018-02-04T10:20:16.935Z,12.30
2018-02-04T10:22:45.251Z,11.63
2018-02-04T10:25:12.801Z,12.30
2018-02-04T10:27:40.346Z,12.80
2018-02-04T10:30:08.639Z,11.07
2018-02-04T10:32:38.947Z,12.25
2018-02-04T10:35:06.525Z,11.05
2018-02-04T10:37:34.081Z,12.80
2018-02-04T10:40:01.606Z,12.77
2018-02-04T10:42:29.156Z,9.85
2018-02-04T10:44:56.683Z,11.75
2018-02-04T10:47:24.228Z,12.88
2018-02-04T10:49:51.764Z,9.73
2018-02-04T10:52:19.278Z,10.80
2018-02-04T10:54:46.831Z,10.95
2018-02-04T10:57:14.355Z,11.55
2018-02-04T10:59:42.668Z,11.20
2018-02-04T11:02:10.976Z,10.40
2018-02-04T11:04:38.544Z,11.52
2018-02-04T11:07:06.070Z,12.18
2018-02-04T11:09:33.620Z,12.32
2018-02-04T11:12:01.153Z,11.77
2018-02-04T11:14:28.736Z,12.57
2018-02-04T11:16:56.312Z,13.32
2018-02-04T11:19:23.905Z,12.57
2018-02-04T11:21:51.446Z,14.35
2018-02-04T11:24:19.010Z,11.60
2018-02-04T11:26:46.539Z,10.48
2018-02-04T11:29:14.166Z,10.63
2018-02-04T11:31:42.478Z,9.90
2018-02-04T11:34:10.038Z,10.02
2018-02-04T11:36:37.620Z,9.35
2018-02-04T11:39:05.153Z,11.48
2018-02-04T11:41:32.684Z,9.38
2018-02-04T11:44:00.999Z,10.57
2018-02-04T11:46:28.548Z,9.70
2018-02-04T11:48:56.832Z,9.82
2018-02-04T11:51:24.392Z,9.38
2018-02-04T11:53:51.918Z,11.18
2018-02-04T11:56:19.487Z,10.45
2018-02-04T11:58:47.939Z,9.95
2018-02-04T12:01:15.496Z,11.35
2018-02-04T12:03:43.033Z,10.43
2018-02-04T12:06:10.567Z,11.52
2018-02-04T12:08:38.100Z,10.55
2018-02-04T12:11:05.659Z,10.15
2018-02-04T12:13:33.252Z,11.25
2018-02-04T12:16:00.828Z,10.80
2018-02-04T12:18:28.370Z,11.23
2018-02-04T12:20:56.713Z,10.02
2018-02-04T12:23:24.275Z,10.60
2018-02-04T12:25:51.839Z,11.77
2018-02-04T12:28:19.403Z,10.73
2018-02-04T12:30:46.951Z,10.93
2018-02-04T12:33:14.516Z,11.60
2018-02-04T12:35:42.064Z,11.52
2018-02-04T12:38:10.375Z,9.15
2018-02-04T12:40:37.911Z,11.07
2018-02-04T12:43:05.462Z,9.38
2018-02-04T12:45:33.005Z,10.90
2018-02-04T12:48:00.548Z,10.32
2018-02-04T12:50:28.078Z,10.10
2018-02-04T12:52:56.395Z,9.63
2018-02-04T12:55:24.807Z,8.88
2018-02-04T12:57:52.416Z,8.15
2018-02-04T13:00:20.709Z,8.70
2018-02-04T13:02:48.218Z,7.80
2018-02-04T13:05:15.807Z,7.57
2018-02-04T13:07:44.108Z,7.72
2018-02-04T13:10:11.668Z,6.75
2018-02-04T13:12:39.206Z,8.65
2018-02-04T13:15:07.514Z,7.72
2018-02-04T13:17:35.058Z,8.38
2018-02-04T13:20:02.701Z,8.35
2018-02-04T13:22:30.980Z,7.37
2018-02-04T13:24:59.299Z,7.00
2018-02-04T13:27:26.832Z,7.97
2018-02-04T13:29:55.147Z,8.80
2018-02-04T13:32:22.704Z,8.90
2018-02-04T13:34:50.259Z,7.68
2018-02-04T13:37:17.804Z,7.53
2018-02-04T13:39:45.356Z,7.75
2018-02-04T13:42:13.661Z,8.82
2018-02-04T13:44:41.279Z,8.82
2018-02-04T13:47:09.560Z,8.20
2018-02-04T13:49:37.855Z,9.15
2018-02-04T13:52:06.152Z,9.30
2018-02-04T13:54:33.708Z,9.70
2018-02-04T13:57:01.264Z,8.90
2018-02-04T13:59:28.796Z,9.50
2018-02-04T14:01:56.358Z,9.15
2018-02-04T14:04:24.664Z,9.98
2018-02-04T14:06:52.208Z,8.20
2018-02-04T14:09:20.503Z,8.93
2018-02-04T14:11:48.064Z,8.50
2018-02-04T14:14:15.626Z,8.82
2018-02-04T14:16:43.949Z,8.93
2018-02-04T14:19:11.482Z,10.45
2018-02-04T14:21:39.042Z,9.75
2018-02-04T14:24:06.593Z,10.13
2018-02-04T14:26:34.149Z,9.57
2018-02-04T14:29:01.696Z,10.23
2018-02-04T14:31:29.251Z,9.77
2018-02-04T14:33:57.561Z,9.93
2018-02-04T14:36:25.123Z,10.43
2018-02-04T14:38:52.663Z,9.23
2018-02-04T14:41:20.226Z,10.52
2018-02-04T14:43:47.770Z,9.32
2018-02-04T14:46:16.073Z,9.63
2018-02-04T14:48:43.614Z,9.80
2018-02-04T14:51:11.140Z,10.52
2018-02-04T14:53:38.715Z,11.38
2018-02-04T14:56:07.018Z,9.88
2018-02-04T14:58:34.592Z,10.10
2018-02-04T15:01:02.142Z,10.15
2018-02-04T15:03:29.697Z,10.88
2018-02-04T15:05:57.227Z,10.00
2018-02-04T15:08:24.776Z,10.95
2018-02-04T15:10:52.311Z,10.35
2018-02-04T15:13:19.857Z,10.68
2018-02-04T15:15:47.392Z,10.55
2018-02-04T15:18:15.888Z,11.00
2018-02-04T15:20:43.419Z,10.20
2018-02-04T15:23:11.759Z,10.43
2018-02-04T15:25:39.279Z,9.38
2018-02-04T15:28:07.806Z,10.93
2018-02-04T15:30:35.349Z,10.57
2018-02-04T15:33:02.911Z,11.70
2018-02-04T15:35:30.467Z,12.37
2018-02-04T15:37:57.999Z,11.88
2018-02-04T15:40:26.319Z,11.35
2018-02-04T15:42:53.840Z,11.40
2018-02-04T15:45:22.535Z,11.93
2018-02-04T15:47:50.112Z,12.05
2018-02-04T15:50:18.243Z,12.32
2018-02-04T15:52:46.706Z,14.30
2018-02-04T15:55:14.278Z,13.70
2018-02-04T15:57:42.631Z,12.45
2018-02-04T16:00:10.182Z,11.88
2018-02-04T16:02:37.802Z,14.63
2018-02-04T16:05:06.190Z,13.55
2018-02-04T16:07:34.325Z,13.32
2018-02-04T16:10:02.811Z,14.73
2018-02-04T16:12:30.359Z,14.57
2018-02-04T16:14:58.025Z,11.98
2018-02-04T16:17:25.563Z,11.12
2018-02-04T16:19:53.115Z,10.43
2018-02-04T16:22:20.659Z,9.43
2018-02-04T16:24:48.219Z,9.10
2018-02-04T16:27:15.771Z,9.48
2018-02-04T16:29:43.360Z,8.27
2018-02-04T16:32:11.000Z,10.00
2018-02-04T16:34:38.787Z,9.27
2018-02-04T16:37:06.343Z,10.35
2018-02-04T16:39:34.651Z,9.52
2018-02-04T16:42:02.207Z,9.75
2018-02-04T16:44:30.264Z,10.38
2018-02-04T16:46:57.838Z,10.63
2018-02-04T16:49:25.397Z,9.02
2018-02-04T16:51:52.961Z,9.82
2018-02-04T16:54:20.516Z,9.88
2018-02-04T16:56:48.064Z,10.65
2018-02-04T16:59:15.753Z,8.85
2018-02-04T17:01:43.299Z,9.65
2018-02-04T17:04:10.824Z,10.00
2018-02-04T17:06:38.383Z,10.35
2018-02-04T17:09:06.725Z,10.40
2018-02-04T17:11:34.270Z,9.65
2018-02-04T17:14:03.936Z,10.95
2018-02-04T17:16:31.503Z,11.00
2018-02-04T17:18:59.037Z,11.85
2018-02-04T17:21:27.367Z,12.95
2018-02-04T17:23:54.905Z,12.60
2018-02-04T17:26:22.483Z,15.00
2018-02-04T17:28:50.045Z,13.88
2018-02-04T17:31:17.615Z,14.50
2018-02-04T17:33:45.174Z,14.20
2018-02-04T17:36:12.717Z,13.82
2018-02-04T17:38:40.295Z,14.65
2018-02-04T17:41:07.832Z,13.35
2018-02-04T17:43:40.952Z,13.40
2018-02-04T17:46:08.471Z,11.70
2018-02-04T17:48:36.017Z,12.80
2018-02-04T17:51:04.319Z,12.45
2018-02-04T17:53:31.884Z,13.38
2018-02-04T17:55:59.411Z,14.52
2018-02-04T17:58:27.955Z,14.20
2018-02-04T18:01:00.688Z,13.07
2018-02-04T18:03:28.993Z,13.48
2018-02-04T18:05:56.515Z,13.23
2018-02-04T18:08:24.088Z,14.70
2018-02-04T18:10:59.204Z,13.82
2018-02-04T18:13:26.824Z,14.35
2018-02-04T18:15:54.380Z,13.55
2018-02-04T18:18:22.875Z,13.98
2018-02-04T18:20:50.432Z,13.80
2018-02-04T18:23:19.036Z,15.05
2018-02-04T18:25:46.584Z,14.35
2018-02-04T18:28:14.193Z,14.27
2018-02-04T18:30:42.507Z,15.02
2018-02-04T18:33:10.052Z,15.60
2018-02-04T18:35:37.632Z,14.73
2018-02-04T18:38:05.175Z,15.88
2018-02-04T18:40:32.749Z,15.73
2018-02-04T18:43:00.339Z,14.93
2018-02-04T18:45:29.985Z,13.90
2018-02-04T18:47:59.349Z,15.70
2018-02-04T18:50:32.105Z,13.65
2018-02-04T18:53:00.674Z,13.50
2018-02-04T18:55:41.607Z,14.55
2018-02-04T18:58:20.583Z,14.95
2018-02-04T19:00:51.651Z,15.40
2018-02-04T19:03:19.216Z,14.07
2018-02-04T19:05:46.772Z,14.85
2018-02-04T19:08:14.346Z,16.55
2018-02-04T19:10:41.911Z,15.60
2018-02-04T19:13:09.496Z,16.05
2018-02-04T19:15:37.102Z,14.68
2018-02-04T19:18:04.652Z,15.93
2018-02-04T19:20:32.269Z,15.00
2018-02-04T19:22:59.821Z,15.20
2018-02-04T19:25:27.351Z,14.77
2018-02-04T19:27:54.910Z,15.45
2018-02-04T19:30:22.553Z,15.63
2018-02-04T19:32:51.054Z,17.12
2018-02-04T19:35:18.593Z,16.65
2018-02-04T19:37:46.174Z,17.90
2018-02-04T19:40:13.743Z,17.85
2018-02-04T19:42:41.317Z,18.30
2018-02-04T19:45:08.855Z,18.83
2018-02-04T19:47:36.410Z,16.42
2018-02-04T19:50:03.965Z,17.42
2018-02-04T19:52:32.522Z,16.00
2018-02-04T19:55:00.070Z,15.02
2018-02-04T19:57:27.675Z,15.70
2018-02-04T19:59:55.258Z,15.07
2018-02-04T20:02:33.530Z,15.73
2018-02-04T20:05:01.849Z,14.35
2018-02-04T20:07:29.503Z,13.95
2018-02-04T20:10:00.335Z,14.98
2018-02-04T20:12:27.901Z,14.25
2018-02-04T20:14:55.443Z,13.95
2018-02-04T20:17:23.076Z,14.73
2018-02-04T20:19:51.446Z,13.77
2018-02-04T20:22:19.156Z,14.27
2018-02-04T20:24:46.782Z,13.62
2018-02-04T20:27:15.083Z,15.80
2018-02-04T20:29:42.694Z,14.70
2018-02-04T20:32:22.076Z,14.23
2018-02-04T20:34:51.128Z,13.77
2018-02-04T20:37:19.528Z,15.55
2018-02-04T20:39:47.092Z,16.62
2018-02-04T20:42:15.407Z,18.12
2018-02-04T20:44:42.975Z,16.30
2018-02-04T20:47:10.551Z,17.33
2018-02-04T20:49:38.294Z,17.10
2018-02-04T20:52:05.827Z,18.52
2018-02-04T20:54:33.410Z,19.80
2018-02-04T20:57:00.953Z,20.30
2018-02-04T20:59:28.563Z,19.42
2018-02-04T21:01:56.860Z,18.25
2018-02-04T21:04:24.463Z,19.17
2018-02-04T21:06:52.028Z,18.25
2018-02-04T21:09:20.389Z,18.87
2018-02-04T21:11:48.723Z,18.65
2018-02-04T21:14:16.387Z,17.00
2018-02-04T21:16:44.187Z,17.83
2018-02-04T21:19:11.804Z,18.52
2018-02-04T21:21:39.361Z,19.98
2018-02-04T21:24:06.927Z,19.95
2018-02-04T21:26:34.513Z,21.27
2018-02-04T21:29:02.076Z,22.00
2018-02-04T21:31:29.744Z,23.42
2018-02-04T21:33:57.429Z,23.27
2018-02-04T21:36:24.971Z,22.45
2018-02-04T21:38:52.587Z,21.17
2018-02-04T21:41:20.211Z,21.52
2018-02-04T21:43:47.774Z,20.10
2018-02-04T21:46:16.132Z,19.30
2018-02-04T21:48:43.673Z,19.70
2018-02-04T21:51:11.292Z,19.35
2018-02-04T21:53:39.669Z,17.60
2018-02-04T21:56:07.984Z,17.52
2018-02-04T21:58:35.540Z,20.12
2018-02-04T22:01:03.151Z,17.35
2018-02-04T22:03:30.681Z,19.70
2018-02-04T22:05:58.258Z,19.60
2018-02-04T22:08:25.784Z,19.30
2018-02-04T22:10:53.349Z,21.67
2018-02-04T22:13:20.921Z,20.73
2018-02-04T22:15:48.481Z,22.48
2018-02-04T22:18:16.012Z,20.67
2018-02-04T22:20:43.581Z,21.60
2018-02-04T22:23:11.130Z,20.23
2018-02-04T22:25:38.695Z,19.37
2018-02-04T22:28:06.271Z,21.80
2018-02-04T22:30:33.834Z,19.65
2018-02-04T22:33:01.367Z,21.08
2018-02-04T22:35:29.696Z,19.67
2018-02-04T22:37:57.234Z,17.75
2018-02-04T22:40:24.801Z,18.87
2018-02-04T22:42:52.350Z,18.58
2018-02-04T22:45:26.656Z,18.52
2018-02-04T22:47:54.225Z,19.50
2018-02-04T22:50:21.800Z,18.58
2018-02-04T22:52:49.350Z,19.33
2018-02-04T22:55:16.935Z,19.35
2018-02-04T22:57:44.474Z,20.02
2018-02-04T23:00:12.075Z,20.65
2018-02-04T23:02:39.616Z,20.70
2018-02-04T23:05:07.144Z,21.37
2018-02-04T23:07:34.698Z,21.90
2018-02-04T23:10:02.254Z,22.65
2018-02-04T23:12:29.817Z,23.10
2018-02-04T23:14:57.366Z,23.50
2018-02-04T23:17:25.707Z,23.20
2018-02-04T23:19:53.261Z,22.45
2018-02-04T23:22:20.809Z,20.55
2018-02-04T23:24:48.347Z,21.48
2018-02-04T23:27:15.929Z,21.70
2018-02-04T23:29:43.483Z,18.85
2018-02-04T23:32:11.077Z,18.33
2018-02-04T23:34:45.193Z,19.80
2018-02-04T23:37:12.776Z,18.65
2018-02-04T23:39:40.296Z,17.87
2018-02-04T23:42:07.844Z,17.55
2018-02-04T23:44:35.420Z,18.55
2018-02-04T23:47:02.960Z,18.17
2018-02-04T23:49:30.507Z,18.08
2018-02-04T23:51:58.060Z,19.12
2018-02-04T23:54:26.368Z,18.48
2018-02-04T23:56:55.225Z,19.02
2018-02-04T23:59:23.538Z,20.00
